Time;durP1;ratioP1;P1;durP2;ratioP2;P2;SDS_P1;SDS_P2;PMS_P1;PMS_P2;Temp;Humidity;BMP_temperature;BMP_pressure;BME280_temperature;BME280_humidity;BME280_pressure;Samples;Min_cycle;Max_cycle;Signal;HPM_P1;HPM_P2
2022/06/20 00:03:50;;;;;;;2.7;4.7;;;;;;;18;100;97920;;;;
2022/06/20 00:14:50;;;;;;;2.7;4.7;;;;;;;17.9;100;97930;;;;
2022/06/20 00:24:51;;;;;;;2.7;4.7;;;;;;;17.8;100;97920;;;;
2022/06/20 00:35:50;;;;;;;2.5;5.3;;;;;;;17.8;100;97930;;;;
2022/06/20 00:46:51;;;;;;;2.5;5.3;;;;;;;17.7;100;97930;;;;
2022/06/20 00:57:50;;;;;;;2.5;5.3;;;;;;;17.5;100;97960;;;;
2022/06/20 01:07:50;;;;;;;2.2;4.6;;;;;;;17.2;100;97970;;;;
2022/06/20 01:17:50;;;;;;;2.2;4.6;;;;;;;17;100;97960;;;;
2022/06/20 01:28:50;;;;;;;2.2;4.6;;;;;;;16.8;100;97950;;;;
2022/06/20 01:39:50;;;;;;;2.6;6;;;;;;;16.6;100;97960;;;;
2022/06/20 01:49:50;;;;;;;2.6;6;;;;;;;16.6;100;97940;;;;
2022/06/20 02:00:50;;;;;;;2.5;7.3;;;;;;;16.7;100;97950;;;;
2022/06/20 02:11:50;;;;;;;2.5;7.3;;;;;;;16.6;100;97940;;;;
2022/06/20 02:22:50;;;;;;;2.5;7.3;;;;;;;16.9;100;97930;;;;
2022/06/20 02:33:50;;;;;;;3;8.6;;;;;;;16.7;100;97940;;;;
2022/06/20 02:43:50;;;;;;;3;8.6;;;;;;;16.3;100;97930;;;;
2022/06/20 02:53:50;;;;;;;3;8.6;;;;;;;16.1;100;97910;;;;
2022/06/20 03:04:53;;;;;;;3.8;6.9;;;;;;;17;100;97900;;;;
2022/06/20 03:14:50;;;;;;;3.8;6.9;;;;;;;17.2;100;97930;;;;
2022/06/20 03:25:50;;;;;;;3.8;6.9;;;;;;;17.2;100;97930;;;;
2022/06/20 03:36:50;;;;;;;2.5;5.6;;;;;;;17.4;100;97940;;;;
2022/06/20 03:46:50;;;;;;;2.5;5.6;;;;;;;17.7;100;97940;;;;
2022/06/20 03:56:50;;;;;;;2.5;5.6;;;;;;;18;100;97940;;;;
2022/06/20 04:07:50;;;;;;;2.6;5.3;;;;;;;18.7;100;97940;;;;
2022/06/20 04:18:51;;;;;;;2.6;5.3;;;;;;;19.2;100;97940;;;;
2022/06/20 04:27:50;;;;;;;2.6;5.3;;;;;;;19.5;100;97970;;;;
2022/06/20 04:38:50;;;;;;;4.6;8.4;;;;;;;19.7;100;97950;;;;
2022/06/20 04:49:50;;;;;;;4.6;8.4;;;;;;;20.2;100;97970;;;;
2022/06/20 04:59:50;;;;;;;4.8;9;;;;;;;20.5;100;97980;;;;
2022/06/20 05:10:50;;;;;;;4.8;9;;;;;;;21.2;100;97990;;;;
2022/06/20 05:20:50;;;;;;;4.8;9;;;;;;;21.7;100;98000;;;;
2022/06/20 05:30:50;;;;;;;4.6;9.8;;;;;;;22.1;100;98000;;;;
2022/06/20 05:41:50;;;;;;;4.6;9.8;;;;;;;22.8;100;98000;;;;
2022/06/20 05:52:50;;;;;;;4.6;9.8;;;;;;;23.1;95.7;98010;;;;
2022/06/20 06:03:50;;;;;;;3.5;7.8;;;;;;;23.2;93.1;97990;;;;
2022/06/20 06:13:50;;;;;;;3.5;7.8;;;;;;;23.6;87.5;98010;;;;
2022/06/20 06:23:50;;;;;;;3.5;7.8;;;;;;;23.8;87.8;98000;;;;
2022/06/20 06:34:50;;;;;;;4.2;8.4;;;;;;;24.2;86.7;97990;;;;
2022/06/20 06:44:50;;;;;;;4.2;8.4;;;;;;;24.5;82.5;97980;;;;
2022/06/20 06:55:50;;;;;;;4.2;8.4;;;;;;;24.6;73.6;97960;;;;
2022/06/20 07:05:50;;;;;;;3.6;7;;;;;;;25.1;77.1;97960;;;;
2022/06/20 07:16:50;;;;;;;3.6;7;;;;;;;25.3;73.4;97950;;;;
2022/06/20 07:26:50;;;;;;;3.6;7;;;;;;;25.2;74.1;97950;;;;
2022/06/20 07:37:50;;;;;;;3.1;6.6;;;;;;;26;70;97940;;;;
2022/06/20 07:47:50;;;;;;;3.1;6.6;;;;;;;26;68.9;97940;;;;
2022/06/20 07:57:50;;;;;;;3.1;6.6;;;;;;;26.3;70.2;97930;;;;
2022/06/20 08:08:50;;;;;;;2.9;6.1;;;;;;;26.5;72.8;97920;;;;
2022/06/20 08:19:50;;;;;;;2.9;6.1;;;;;;;27;70.5;97900;;;;
2022/06/20 08:30:50;;;;;;;3;6.3;;;;;;;27.2;71.6;97870;;;;
2022/06/20 08:41:50;;;;;;;3;6.3;;;;;;;27.5;70.3;97850;;;;
2022/06/20 08:52:06;;;;;;;3;6.3;;;;;;;27.9;67.8;97820;;;;
2022/06/20 09:01:50;;;;;;;3.1;6.4;;;;;;;28;68.6;97790;;;;
2022/06/20 09:12:50;;;;;;;3.1;6.4;;;;;;;28.7;65.6;97800;;;;
2022/06/20 09:31:00;;;;;;;2.4;6.2;;;;;;;29;67.6;97780;;;;
2022/06/20 09:40:59;;;;;;;2.4;6.2;;;;;;;29.3;66.6;97750;;;;
2022/06/20 09:51:59;;;;;;;2.4;6.2;;;;;;;29.7;63.9;97720;;;;
2022/06/20 10:01:59;;;;;;;3.2;5.7;;;;;;;29.6;65.7;97700;;;;
2022/06/20 10:12:00;;;;;;;3.2;5.7;;;;;;;29.8;65.2;97670;;;;
2022/06/20 10:22:59;;;;;;;3.2;5.7;;;;;;;30.3;63.7;97680;;;;
2022/06/20 10:32:59;;;;;;;3.1;8.8;;;;;;;30.4;65.1;97670;;;;
2022/06/20 10:43:59;;;;;;;3.1;8.8;;;;;;;30.3;62.2;97680;;;;
2022/06/20 10:54:00;;;;;;;3.1;8.8;;;;;;;30.6;66.2;97680;;;;
2022/06/20 11:05:00;;;;;;;3.2;6.9;;;;;;;30.7;65.2;97690;;;;
2022/06/20 11:15:59;;;;;;;3.2;6.9;;;;;;;31.2;65;97680;;;;
2022/06/20 11:26:00;;;;;;;3.2;6.9;;;;;;;31.4;61.6;97690;;;;
2022/06/20 11:36:00;;;;;;;3.7;6.8;;;;;;;31.6;62.5;97670;;;;
2022/06/20 11:47:00;;;;;;;3.7;6.8;;;;;;;32;58.9;97660;;;;
2022/06/20 11:57:00;;;;;;;3.7;6.8;;;;;;;32.5;57.2;97660;;;;
2022/06/20 12:07:59;;;;;;;2.9;7.5;;;;;;;33.4;59.6;97660;;;;
2022/06/20 12:18:00;;;;;;;2.9;7.5;;;;;;;33.8;55.5;97670;;;;
2022/06/20 12:29:00;;;;;;;2.9;7.5;;;;;;;33.2;55.7;97740;;;;
2022/06/20 12:39:00;;;;;;;3.1;6.6;;;;;;;31.8;60.5;97780;;;;
2022/06/20 12:49:00;;;;;;;3.1;6.6;;;;;;;30.2;58.8;97840;;;;
2022/06/20 13:00:00;;;;;;;3.6;9.2;;;;;;;30.1;56;97830;;;;
2022/06/20 13:10:00;;;;;;;3.6;9.2;;;;;;;29.5;57.2;97840;;;;
2022/06/20 13:21:00;;;;;;;3.6;9.2;;;;;;;29.6;57;97810;;;;
2022/06/20 13:32:00;;;;;;;1.8;6.4;;;;;;;29.4;58.4;97830;;;;
2022/06/20 13:43:00;;;;;;;1.8;6.4;;;;;;;29.4;59.8;97830;;;;
2022/06/20 13:53:00;;;;;;;1.8;6.4;;;;;;;29.2;60.8;97840;;;;
2022/06/20 14:04:02;;;;;;;1.7;5.3;;;;;;;29.2;61.8;97850;;;;
2022/06/20 14:14:00;;;;;;;1.7;5.3;;;;;;;28.6;65.1;97870;;;;
2022/06/20 14:24:00;;;;;;;1.7;5.3;;;;;;;27.5;66.1;97950;;;;
2022/06/20 14:35:31;;;;;;;2.4;7.7;;;;;;;26.3;79.3;98030;;;;
2022/06/20 14:45:00;;;;;;;2.4;7.7;;;;;;;23.6;100;97980;;;;
2022/06/20 14:56:00;;;;;;;2.4;7.7;;;;;;;22.2;100;97970;;;;
2022/06/20 15:07:00;;;;;;;3.5;8.3;;;;;;;21.3;100;97940;;;;
2022/06/20 15:17:00;;;;;;;3.5;8.3;;;;;;;20.7;100;97920;;;;
2022/06/20 15:28:00;;;;;;;3.5;8.3;;;;;;;20.8;100;97850;;;;
2022/06/20 15:38:00;;;;;;;3.5;8;;;;;;;21;100;97850;;;;
2022/06/20 15:50:42;;;;;;;3.5;8;;;;;;;20.7;100;97880;;;;
2022/06/20 16:00:41;;;;;;;3.3;6.2;;;;;;;20.7;100;97810;;;;
2022/06/20 16:10:42;;;;;;;3.3;6.2;;;;;;;19.7;100;97790;;;;
2022/06/20 16:20:42;;;;;;;3.3;6.2;;;;;;;19.7;100;97730;;;;
2022/06/20 16:31:42;;;;;;;2.3;6.1;;;;;;;20.2;100;97630;;;;
2022/06/20 16:42:42;;;;;;;2.3;6.1;;;;;;;20.3;100;97620;;;;
2022/06/20 16:52:42;;;;;;;2.3;6.1;;;;;;;20.8;100;97630;;;;
2022/06/20 17:03:41;;;;;;;2.5;5.7;;;;;;;24.3;100;97630;;;;
2022/06/20 17:13:42;;;;;;;2.5;5.7;;;;;;;23.7;100;97630;;;;
2022/06/20 17:24:42;;;;;;;2.5;5.7;;;;;;;23.6;100;97640;;;;
2022/06/20 17:35:42;;;;;;;2;4;;;;;;;22.9;100;97680;;;;
2022/06/20 17:45:42;;;;;;;2;4;;;;;;;22.2;100;97680;;;;
2022/06/20 17:56:44;;;;;;;2;4;;;;;;;21.8;100;97700;;;;
2022/06/20 18:07:42;;;;;;;2.8;6.8;;;;;;;21.8;100;97740;;;;
2022/06/20 18:17:42;;;;;;;2.8;6.8;;;;;;;21.6;100;97740;;;;
2022/06/20 18:28:42;;;;;;;2.8;6.8;;;;;;;21;100;97740;;;;
2022/06/20 18:38:41;;;;;;;3.7;9.8;;;;;;;20.6;100;97750;;;;
2022/06/20 18:49:42;;;;;;;3.7;9.8;;;;;;;20.7;100;97810;;;;
2022/06/20 18:59:42;;;;;;;3.7;9.8;;;;;;;20.5;100;97840;;;;
2022/06/20 19:09:42;;;;;;;3.6;6.5;;;;;;;20.4;100;97830;;;;
2022/06/20 19:20:42;;;;;;;3.6;6.5;;;;;;;20.3;100;97830;;;;
2022/06/20 19:31:42;;;;;;;4.3;8;;;;;;;20.1;100;97850;;;;
2022/06/20 19:41:42;;;;;;;4.3;8;;;;;;;20.1;100;97850;;;;
2022/06/20 19:51:42;;;;;;;4.3;8;;;;;;;20;100;97840;;;;
2022/06/20 20:01:42;;;;;;;5.7;8.3;;;;;;;20;100;97810;;;;
2022/06/20 20:11:42;;;;;;;5.7;8.3;;;;;;;19.7;100;97840;;;;
2022/06/20 20:22:42;;;;;;;5.7;8.3;;;;;;;19.5;100;97800;;;;
2022/06/20 20:33:42;;;;;;;6.1;10.1;;;;;;;19.4;100;97790;;;;
2022/06/20 20:44:42;;;;;;;6.1;10.1;;;;;;;19.2;100;97800;;;;
2022/06/20 20:55:42;;;;;;;6.1;10.1;;;;;;;19.1;100;97810;;;;
2022/06/20 21:05:42;;;;;;;7.7;10.5;;;;;;;18.9;100;97790;;;;
2022/06/20 21:16:42;;;;;;;7.7;10.5;;;;;;;18.9;100;97820;;;;
2022/06/20 21:27:42;;;;;;;7.7;10.5;;;;;;;18.4;100;97830;;;;
2022/06/20 21:37:42;;;;;;;6.5;10.6;;;;;;;18.2;100;97840;;;;
2022/06/20 21:47:44;;;;;;;6.5;10.6;;;;;;;18.2;100;97870;;;;
2022/06/20 21:57:42;;;;;;;6.5;10.6;;;;;;;18;100;97890;;;;
2022/06/20 22:08:42;;;;;;;5.7;9.2;;;;;;;17.7;100;97900;;;;
2022/06/20 22:18:42;;;;;;;5.7;9.2;;;;;;;17.3;100;97940;;;;
2022/06/20 22:29:42;;;;;;;5.7;9.2;;;;;;;17.1;100;97980;;;;
2022/06/20 22:39:42;;;;;;;4.3;7.2;;;;;;;17;100;97970;;;;
2022/06/20 22:50:42;;;;;;;4.3;7.2;;;;;;;16.6;100;97950;;;;
2022/06/20 23:01:42;;;;;;;1.8;4.4;;;;;;;16.3;100;97960;;;;
2022/06/20 23:12:42;;;;;;;1.8;4.4;;;;;;;16.2;100;97950;;;;
2022/06/20 23:23:42;;;;;;;1.8;4.4;;;;;;;16.1;100;97940;;;;
2022/06/20 23:33:42;;;;;;;1.4;5.6;;;;;;;16;100;97970;;;;
2022/06/20 23:43:42;;;;;;;1.4;5.6;;;;;;;15.9;100;98000;;;;
2022/06/20 23:54:42;;;;;;;1.4;5.6;;;;;;;15.8;100;98000;;;;
